Time;durP1;ratioP1;P1;durP2;ratioP2;P2;SDS_P1;SDS_P2;PMS_P1;PMS_P2;Temp;Humidity;BMP_temperature;BMP_pressure;BME280_temperature;BME280_humidity;BME280_pressure;Samples;Min_cycle;Max_cycle;Signal;HPM_P1;HPM_P2
2021/07/02 00:00:12;;;;;;;10.97;6.27;;;13.80;99.90;;;;;;5057006;28;20196;-69
2021/07/02 00:02:41;;;;;;;8.73;5.90;;;13.80;99.90;;;;;;5060680;28;20196;-69
2021/07/02 00:05:11;;;;;;;11.30;6.10;;;13.80;99.90;;;;;;5054151;28;20292;-68
2021/07/02 00:07:42;;;;;;;7.80;6.03;;;13.70;99.90;;;;;;5057591;28;20306;-68
2021/07/02 00:10:13;;;;;;;11.97;5.80;;;13.70;99.90;;;;;;5054082;28;20981;-68
2021/07/02 00:12:41;;;;;;;11.20;6.03;;;13.70;99.90;;;;;;5057875;28;20524;-67
2021/07/02 00:15:12;;;;;;;8.00;6.10;;;13.60;99.90;;;;;;5057286;28;20208;-68
2021/07/02 00:17:43;;;;;;;7.50;5.53;;;13.60;99.90;;;;;;5054574;28;20979;-68
2021/07/02 00:20:13;;;;;;;10.47;5.90;;;13.60;99.90;;;;;;5055292;28;20263;-68
2021/07/02 00:22:42;;;;;;;6.87;5.77;;;13.60;99.90;;;;;;5054857;28;20200;-68
2021/07/02 00:25:13;;;;;;;6.07;5.40;;;13.70;99.90;;;;;;5052880;28;20639;-68
2021/07/02 00:27:41;;;;;;;8.07;5.80;;;13.70;99.90;;;;;;5056901;28;20238;-68
2021/07/02 00:30:11;;;;;;;7.90;5.93;;;13.60;99.90;;;;;;5054795;28;20238;-68
2021/07/02 00:32:40;;;;;;;6.90;5.63;;;13.70;99.90;;;;;;5053994;28;20188;-68
2021/07/02 00:35:09;;;;;;;11.47;5.97;;;13.70;99.90;;;;;;5059819;28;20228;-68
2021/07/02 00:37:39;;;;;;;7.00;5.40;;;13.80;99.90;;;;;;5053894;28;20223;-68
2021/07/02 00:40:08;;;;;;;7.77;5.73;;;13.70;99.90;;;;;;5052921;28;20330;-68
2021/07/02 00:42:38;;;;;;;8.77;5.90;;;13.70;99.90;;;;;;5069319;28;20539;-67
2021/07/02 00:45:09;;;;;;;7.13;5.33;;;13.70;99.90;;;;;;5054918;28;21609;-68
2021/07/02 00:47:37;;;;;;;10.13;5.70;;;13.70;99.90;;;;;;5056451;28;20287;-68
2021/07/02 00:50:07;;;;;;;9.33;5.70;;;13.70;99.90;;;;;;5053896;28;20308;-69
2021/07/02 00:52:35;;;;;;;9.93;5.70;;;13.70;99.90;;;;;;5055011;28;20368;-68
2021/07/02 00:55:05;;;;;;;8.80;5.43;;;13.70;99.90;;;;;;5055081;28;20196;-68
2021/07/02 00:57:35;;;;;;;10.37;5.57;;;13.70;99.90;;;;;;5065846;28;20694;-68
2021/07/02 01:00:08;;;;;;;7.17;5.83;;;13.70;99.90;;;;;;5054679;28;20200;-68
2021/07/02 01:02:36;;;;;;;10.00;6.20;;;13.70;99.90;;;;;;5054616;28;20276;-68
2021/07/02 01:05:07;;;;;;;7.20;5.47;;;13.80;99.90;;;;;;5051794;28;20576;-68
2021/07/02 01:07:36;;;;;;;11.70;5.70;;;13.80;99.90;;;;;;5058720;28;20277;-69
2021/07/02 01:10:05;;;;;;;8.93;5.60;;;13.80;99.90;;;;;;5057052;28;20193;-68
2021/07/02 01:12:33;;;;;;;6.33;5.50;;;13.80;99.90;;;;;;5045192;28;20224;-69
2021/07/02 01:15:02;;;;;;;7.30;5.60;;;13.80;99.90;;;;;;5057540;28;20196;-68
2021/07/02 01:17:32;;;;;;;7.73;5.53;;;13.80;99.90;;;;;;5056980;28;21622;-68
2021/07/02 01:20:01;;;;;;;5.80;5.33;;;13.80;99.90;;;;;;5057455;28;20212;-68
2021/07/02 01:22:30;;;;;;;6.30;5.37;;;13.70;99.90;;;;;;5056870;28;20294;-68
2021/07/02 01:24:59;;;;;;;9.33;5.97;;;13.60;99.90;;;;;;5057431;28;20220;-69
2021/07/02 01:27:28;;;;;;;6.53;5.87;;;13.40;99.90;;;;;;5057115;28;20494;-67
2021/07/02 01:29:56;;;;;;;9.53;5.87;;;13.40;99.90;;;;;;5056357;28;20314;-68
2021/07/02 01:32:25;;;;;;;8.27;5.50;;;13.40;99.90;;;;;;5067346;28;20224;-68
2021/07/02 01:34:53;;;;;;;8.77;5.63;;;13.30;99.90;;;;;;5055640;28;20196;-67
2021/07/02 01:37:22;;;;;;;5.90;5.13;;;13.40;99.90;;;;;;5057057;28;20640;-69
2021/07/02 01:39:52;;;;;;;7.77;5.90;;;13.40;99.90;;;;;;5057371;28;20480;-68
2021/07/02 01:42:20;;;;;;;9.20;6.00;;;13.30;99.90;;;;;;5056984;28;20274;-69
2021/07/02 01:44:49;;;;;;;6.97;5.53;;;13.20;99.90;;;;;;5056874;28;20285;-68
2021/07/02 01:47:17;;;;;;;8.10;5.23;;;13.20;99.90;;;;;;5056459;28;20700;-68
2021/07/02 01:49:46;;;;;;;9.10;5.37;;;13.20;99.90;;;;;;5056794;28;20220;-69
2021/07/02 01:52:15;;;;;;;7.03;5.57;;;13.20;99.90;;;;;;5057181;28;20193;-68
2021/07/02 01:54:43;;;;;;;7.03;5.13;;;13.20;99.90;;;;;;5059817;28;20200;-69
2021/07/02 01:57:21;;;;;;;10.83;5.80;;;13.20;99.90;;;;;;5057050;28;20208;-68
2021/07/02 01:59:50;;;;;;;10.63;5.80;;;13.20;99.90;;;;;;5058394;28;20761;-68
2021/07/02 02:02:18;;;;;;;10.97;5.83;;;13.20;99.90;;;;;;5052955;28;20290;-68
2021/07/02 02:04:47;;;;;;;8.77;5.43;;;13.30;99.90;;;;;;5054414;28;20800;-67
2021/07/02 02:07:16;;;;;;;8.60;5.70;;;13.20;99.90;;;;;;5055945;28;20969;-68
2021/07/02 02:09:44;;;;;;;5.73;5.23;;;13.20;99.90;;;;;;5057064;28;20224;-69
2021/07/02 02:12:16;;;;;;;7.83;5.37;;;13.20;99.90;;;;;;5055629;28;20196;-68
2021/07/02 02:14:45;;;;;;;6.73;5.27;;;13.20;99.90;;;;;;5059609;28;20213;-68
2021/07/02 02:17:13;;;;;;;7.87;6.37;;;13.20;99.90;;;;;;5056028;28;20236;-69
2021/07/02 02:19:42;;;;;;;9.50;5.67;;;13.20;99.90;;;;;;5056578;28;20278;-68
2021/07/02 02:22:10;;;;;;;10.00;6.33;;;13.20;99.90;;;;;;5056657;28;20294;-68
2021/07/02 02:24:38;;;;;;;6.87;5.47;;;13.20;99.90;;;;;;5055559;28;20398;-68
2021/07/02 02:27:09;;;;;;;7.23;5.77;;;13.10;99.90;;;;;;5055238;28;20196;-68
2021/07/02 02:29:39;;;;;;;8.17;5.77;;;13.10;99.90;;;;;;5054754;28;20279;-68
2021/07/02 02:32:08;;;;;;;8.23;6.33;;;13.10;99.90;;;;;;5056418;28;20670;-68
2021/07/02 02:34:37;;;;;;;6.40;5.80;;;13.00;99.90;;;;;;5055484;28;20210;-68
2021/07/02 02:37:06;;;;;;;8.93;6.27;;;13.00;99.90;;;;;;5057059;28;20238;-68
2021/07/02 02:39:34;;;;;;;8.47;6.50;;;12.90;99.90;;;;;;5059896;28;20756;-68
2021/07/02 02:42:02;;;;;;;11.93;5.60;;;12.90;99.90;;;;;;5057146;28;20283;-66
2021/07/02 02:44:32;;;;;;;8.07;5.80;;;12.80;99.90;;;;;;5055938;28;20204;-69
2021/07/02 02:47:01;;;;;;;7.50;5.90;;;12.80;99.90;;;;;;5055601;28;20455;-68
2021/07/02 02:49:30;;;;;;;8.80;6.50;;;12.80;99.90;;;;;;5049520;28;20192;-68
2021/07/02 02:51:59;;;;;;;9.00;6.23;;;12.70;99.90;;;;;;5052978;28;20199;-68
2021/07/02 02:54:27;;;;;;;9.17;6.40;;;12.70;99.90;;;;;;5033720;28;20287;-67
2021/07/02 02:57:05;;;;;;;8.67;6.40;;;12.60;99.90;;;;;;5054601;28;20281;-68
2021/07/02 02:59:41;;;;;;;9.77;6.13;;;12.60;99.90;;;;;;5056002;28;20290;-68
2021/07/02 03:02:11;;;;;;;9.73;5.90;;;12.50;99.90;;;;;;5055367;28;20838;-69
2021/07/02 03:04:40;;;;;;;11.43;6.53;;;12.40;99.90;;;;;;5056697;28;20296;-68
2021/07/02 03:07:09;;;;;;;11.07;6.37;;;12.40;99.90;;;;;;5055268;28;20236;-69
2021/07/02 03:09:37;;;;;;;9.83;6.57;;;12.30;99.90;;;;;;5054498;28;20188;-67
2021/07/02 03:12:07;;;;;;;14.90;7.00;;;12.30;99.90;;;;;;5054503;28;20282;-68
2021/07/02 03:14:35;;;;;;;7.90;6.10;;;12.20;99.90;;;;;;5055798;28;20669;-68
2021/07/02 03:17:04;;;;;;;15.03;6.97;;;12.10;99.90;;;;;;5055066;28;20243;-68
2021/07/02 03:19:34;;;;;;;14.23;6.60;;;12.10;99.90;;;;;;5056316;28;20258;-69
2021/07/02 03:22:03;;;;;;;10.07;6.33;;;12.00;99.90;;;;;;5054665;28;20203;-68
2021/07/02 03:24:31;;;;;;;8.83;6.03;;;12.00;99.90;;;;;;5053729;28;20743;-68
2021/07/02 03:27:00;;;;;;;10.17;6.97;;;11.90;99.90;;;;;;5053184;28;20660;-68
2021/07/02 03:29:28;;;;;;;11.13;6.80;;;11.90;99.90;;;;;;5056634;28;20251;-68
2021/07/02 03:31:57;;;;;;;12.60;6.57;;;11.80;99.90;;;;;;5056088;28;20342;-69
2021/07/02 03:34:25;;;;;;;11.23;6.90;;;11.80;99.90;;;;;;5057608;28;20192;-66
2021/07/02 03:36:55;;;;;;;12.73;7.40;;;11.80;99.90;;;;;;5053922;28;21056;-68
2021/07/02 03:39:23;;;;;;;9.67;6.57;;;11.70;99.90;;;;;;5054089;28;20208;-68
2021/07/02 03:41:52;;;;;;;9.07;6.60;;;11.70;99.90;;;;;;5053763;28;20295;-68
2021/07/02 03:44:20;;;;;;;9.10;6.70;;;11.70;99.90;;;;;;5053947;28;20196;-67
2021/07/02 03:46:49;;;;;;;16.03;7.10;;;11.70;99.90;;;;;;5057435;28;20231;-67
2021/07/02 03:49:17;;;;;;;11.23;7.50;;;11.60;99.90;;;;;;5056266;28;20307;-68
2021/07/02 03:51:46;;;;;;;9.57;6.50;;;11.70;99.90;;;;;;5052370;28;20200;-68
2021/07/02 03:54:16;;;;;;;10.40;7.10;;;11.70;99.90;;;;;;5056451;28;20658;-68
2021/07/02 03:59:27;;;;;;;8.63;6.87;;;11.60;99.90;;;;;;5052402;28;20208;-68
2021/07/02 04:01:55;;;;;;;8.37;6.37;;;11.60;99.90;;;;;;5054877;28;20281;-68
2021/07/02 04:04:24;;;;;;;13.70;7.60;;;11.60;99.90;;;;;;5058669;28;20231;-68
2021/07/02 04:06:52;;;;;;;11.37;7.60;;;11.60;99.90;;;;;;5054470;28;20227;-68
2021/07/02 04:09:22;;;;;;;10.13;6.77;;;11.60;99.90;;;;;;5052767;28;20311;-65
2021/07/02 04:11:59;;;;;;;11.97;7.10;;;11.50;99.90;;;;;;5055962;28;20192;-67
2021/07/02 04:14:32;;;;;;;9.27;6.77;;;11.50;99.90;;;;;;5054906;28;20758;-68
2021/07/02 04:17:09;;;;;;;11.20;7.13;;;11.40;99.90;;;;;;5037909;28;20204;-67
2021/07/02 04:19:39;;;;;;;13.87;8.00;;;11.40;99.90;;;;;;5069641;28;20208;-68
2021/07/02 04:22:08;;;;;;;9.37;7.07;;;11.40;99.90;;;;;;5053569;28;20888;-66
2021/07/02 04:24:38;;;;;;;14.83;7.73;;;11.40;99.90;;;;;;5058817;28;20219;-67
2021/07/02 04:27:13;;;;;;;13.90;7.47;;;11.40;99.90;;;;;;5060626;28;20200;-68
2021/07/02 04:29:43;;;;;;;9.50;6.93;;;11.40;99.90;;;;;;5055213;28;20757;-68
2021/07/02 04:32:11;;;;;;;10.13;7.37;;;11.40;99.90;;;;;;5054718;28;20722;-68
2021/07/02 04:34:40;;;;;;;13.13;7.83;;;11.50;99.90;;;;;;5054633;28;20231;-68
2021/07/02 04:37:09;;;;;;;13.13;7.83;;;11.60;99.90;;;;;;5052728;28;20292;-68
2021/07/02 04:39:39;;;;;;;13.93;8.17;;;11.60;99.90;;;;;;5053799;28;20220;-68
2021/07/02 04:42:07;;;;;;;10.67;7.17;;;11.70;99.90;;;;;;5056799;28;20251;-68
2021/07/02 04:44:37;;;;;;;13.07;7.67;;;11.70;99.90;;;;;;5054513;28;20265;-67
2021/07/02 04:47:06;;;;;;;17.10;7.57;;;11.70;99.90;;;;;;5054200;28;20303;-67
2021/07/02 04:49:35;;;;;;;19.17;7.60;;;11.80;99.90;;;;;;5071316;28;20275;-67
2021/07/02 04:52:05;;;;;;;10.03;7.03;;;11.80;99.90;;;;;;5057277;28;20224;-68
2021/07/02 04:54:33;;;;;;;10.63;7.73;;;11.80;99.90;;;;;;5056121;28;20270;-67
2021/07/02 04:57:06;;;;;;;13.77;7.73;;;11.90;99.90;;;;;;5057153;28;20198;-67
2021/07/02 04:59:36;;;;;;;14.83;7.90;;;12.00;99.90;;;;;;5058006;28;20248;-68
2021/07/02 05:02:06;;;;;;;13.67;7.57;;;12.00;99.90;;;;;;5059338;28;20287;-67
2021/07/02 05:04:39;;;;;;;15.73;8.50;;;12.00;99.90;;;;;;5059619;28;20199;-68
2021/07/02 05:07:09;;;;;;;17.27;8.80;;;12.10;99.90;;;;;;5056766;28;20288;-68
2021/07/02 05:09:37;;;;;;;14.40;7.70;;;12.20;99.90;;;;;;5057084;28;20219;-68
2021/07/02 05:12:09;;;;;;;18.87;9.43;;;12.20;99.90;;;;;;5056890;28;20709;-68
2021/07/02 05:14:37;;;;;;;20.23;8.97;;;12.30;99.90;;;;;;5057264;28;20199;-68
2021/07/02 05:17:10;;;;;;;15.87;8.73;;;12.40;99.90;;;;;;5058911;28;20201;-67
2021/07/02 05:19:41;;;;;;;15.40;9.00;;;12.50;99.90;;;;;;5060532;28;20215;-67
2021/07/02 05:22:13;;;;;;;16.93;9.20;;;12.60;99.90;;;;;;5062935;28;21386;-68
2021/07/02 05:24:42;;;;;;;17.70;8.57;;;12.60;99.90;;;;;;5061488;28;20192;-69
2021/07/02 05:27:12;;;;;;;16.87;9.50;;;12.70;99.90;;;;;;5059516;28;20228;-68
2021/07/02 05:29:40;;;;;;;16.47;9.20;;;12.80;99.90;;;;;;5059516;28;20720;-68
2021/07/02 05:32:09;;;;;;;16.73;9.33;;;12.90;99.90;;;;;;5060999;28;20250;-68
2021/07/02 05:34:38;;;;;;;17.80;9.20;;;13.10;99.90;;;;;;5062573;28;20269;-68
2021/07/02 05:37:06;;;;;;;16.70;8.67;;;13.10;99.90;;;;;;5061339;28;20254;-69
2021/07/02 05:39:35;;;;;;;20.33;9.57;;;13.30;99.90;;;;;;5063356;28;20691;-68
2021/07/02 05:42:04;;;;;;;13.50;8.90;;;13.40;99.90;;;;;;5060874;28;20275;-68
2021/07/02 05:44:33;;;;;;;20.37;9.80;;;13.50;99.90;;;;;;5058474;28;20259;-68
2021/07/02 05:47:02;;;;;;;15.53;9.27;;;13.60;99.90;;;;;;5058955;28;20202;-68
2021/07/02 05:49:31;;;;;;;20.30;9.70;;;13.70;99.90;;;;;;5061277;28;20192;-68
2021/07/02 05:52:02;;;;;;;15.90;9.57;;;13.90;99.90;;;;;;5059808;28;20741;-68
2021/07/02 05:54:33;;;;;;;14.83;9.50;;;14.00;99.90;;;;;;5059928;28;20197;-67
2021/07/02 05:57:01;;;;;;;15.23;8.80;;;14.30;99.90;;;;;;5058011;28;20242;-68
2021/07/02 05:59:29;;;;;;;14.77;9.13;;;14.60;99.90;;;;;;5060443;28;20760;-68
2021/07/02 06:01:59;;;;;;;17.13;9.50;;;15.00;99.90;;;;;;5060532;28;20234;-68
2021/07/02 06:04:28;;;;;;;20.80;9.63;;;15.40;99.90;;;;;;5058836;28;20192;-68
2021/07/02 06:06:56;;;;;;;19.90;9.43;;;15.90;99.90;;;;;;5059758;28;20262;-68
2021/07/02 06:09:25;;;;;;;13.97;8.60;;;16.40;99.90;;;;;;5056331;28;20227;-68
2021/07/02 06:11:53;;;;;;;19.40;9.77;;;16.70;99.90;;;;;;5058900;28;20192;-68
2021/07/02 06:14:22;;;;;;;20.90;11.00;;;16.80;99.90;;;;;;5068825;28;20253;-69
2021/07/02 06:16:51;;;;;;;19.80;11.87;;;16.90;99.90;;;;;;5057769;28;20278;-68
2021/07/02 06:19:20;;;;;;;22.43;13.03;;;17.00;99.90;;;;;;5066339;28;20188;-69
2021/07/02 06:21:49;;;;;;;22.43;13.00;;;16.90;99.90;;;;;;5057918;28;20216;-67
2021/07/02 06:24:17;;;;;;;26.13;13.33;;;16.90;99.90;;;;;;5068614;28;20283;-69
2021/07/02 06:26:46;;;;;;;21.07;12.70;;;17.00;99.90;;;;;;5063001;28;20224;-68
2021/07/02 06:29:14;;;;;;;24.07;13.77;;;17.00;99.90;;;;;;5065093;28;20519;-68
2021/07/02 06:31:43;;;;;;;23.17;14.20;;;17.10;99.90;;;;;;5056370;28;20227;-68
2021/07/02 06:34:11;;;;;;;27.13;13.73;;;17.10;99.90;;;;;;5060192;28;20223;-68
2021/07/02 06:36:44;;;;;;;25.50;14.07;;;17.30;99.90;;;;;;5061197;28;20636;-68
2021/07/02 06:39:12;;;;;;;26.77;14.80;;;17.60;99.90;;;;;;5061459;28;20216;-68
2021/07/02 06:41:40;;;;;;;25.43;14.53;;;17.90;99.90;;;;;;5061594;28;20210;-68
2021/07/02 06:44:12;;;;;;;23.77;13.93;;;18.10;99.90;;;;;;5060478;28;20192;-68
2021/07/02 06:46:40;;;;;;;26.07;14.53;;;18.40;99.90;;;;;;5060450;28;20198;-68
2021/07/02 06:49:09;;;;;;;26.93;15.13;;;18.70;99.90;;;;;;5061278;28;20232;-68
2021/07/02 06:51:38;;;;;;;29.97;15.33;;;18.70;99.90;;;;;;5060038;28;20228;-68
2021/07/02 06:54:07;;;;;;;28.77;15.10;;;18.70;99.90;;;;;;5058152;28;20744;-68
2021/07/02 06:56:36;;;;;;;27.73;14.50;;;18.70;99.90;;;;;;5059614;28;20197;-68
2021/07/02 06:59:04;;;;;;;24.23;14.57;;;18.70;99.90;;;;;;5060436;28;20339;-68
2021/07/02 07:01:33;;;;;;;25.70;14.60;;;18.90;99.90;;;;;;5067564;28;20631;-68
2021/07/02 07:04:01;;;;;;;23.00;13.77;;;19.10;99.90;;;;;;5068248;28;20278;-69
2021/07/02 07:06:30;;;;;;;21.00;14.23;;;19.40;99.90;;;;;;5070440;28;20200;-68
2021/07/02 07:09:01;;;;;;;22.63;14.50;;;19.60;99.90;;;;;;5060363;28;20201;-68
2021/07/02 07:11:31;;;;;;;25.00;15.40;;;19.50;99.90;;;;;;5057452;28;20197;-66
2021/07/02 07:13:59;;;;;;;24.43;15.67;;;19.30;99.90;;;;;;5064002;28;20285;-68
2021/07/02 07:16:27;;;;;;;23.60;14.57;;;19.30;99.90;;;;;;5060780;28;20230;-69
2021/07/02 07:18:57;;;;;;;22.50;14.30;;;19.80;99.90;;;;;;5066227;28;20206;-69
2021/07/02 07:21:25;;;;;;;23.27;14.63;;;20.70;99.90;;;;;;5065708;28;20688;-68
2021/07/02 07:23:54;;;;;;;20.27;12.57;;;21.80;99.90;;;;;;5060893;28;20192;-65
2021/07/02 07:26:22;;;;;;;27.05;13.50;;;22.90;99.90;;;;;;5061596;28;20220;-66
2021/07/02 07:28:52;;;;;;;22.27;12.90;;;23.40;99.90;;;;;;5065175;28;20205;-67
2021/07/02 07:31:20;;;;;;;19.67;13.10;;;24.00;99.90;;;;;;5064045;28;20221;-67
2021/07/02 07:33:50;;;;;;;19.25;13.35;;;24.20;99.90;;;;;;5067828;28;20252;-66
2021/07/02 07:36:21;;;;;;;23.35;13.07;;;24.60;99.90;;;;;;5062387;28;20198;-66
2021/07/02 07:38:54;;;;;;;17.83;11.93;;;25.00;99.90;;;;;;5060697;28;20187;-66
2021/07/02 07:41:23;;;;;;;15.70;11.45;;;25.50;99.90;;;;;;5063328;28;20311;-66
2021/07/02 07:43:53;;;;;;;17.92;12.18;;;25.70;99.90;;;;;;5062847;28;20711;-67
2021/07/02 07:46:24;;;;;;;13.80;9.88;;;25.50;99.90;;;;;;5066098;28;20192;-66
2021/07/02 07:48:53;;;;;;;19.08;10.98;;;25.40;99.90;;;;;;5061509;28;20245;-66
2021/07/02 07:51:33;;;;;;;14.20;9.70;;;25.80;99.90;;;;;;5065965;28;20193;-65
2021/07/02 07:54:02;;;;;;;17.70;10.20;;;25.80;99.90;;;;;;5067005;28;20712;-66
2021/07/02 07:56:31;;;;;;;14.85;10.20;;;26.00;99.90;;;;;;5059007;28;20240;-66
2021/07/02 07:59:01;;;;;;;12.23;9.65;;;26.40;99.90;;;;;;5061028;28;20280;-66
2021/07/02 08:01:29;;;;;;;13.85;8.80;;;25.90;99.90;;;;;;5064335;28;20200;-66
2021/07/02 08:03:58;;;;;;;11.43;9.27;;;26.40;99.90;;;;;;5064995;28;20227;-65
2021/07/02 08:06:28;;;;;;;13.18;9.55;;;27.00;99.90;;;;;;5062123;28;20350;-66
2021/07/02 08:08:57;;;;;;;12.98;7.63;;;26.90;99.90;;;;;;5063969;28;20287;-66
2021/07/02 08:11:28;;;;;;;13.95;8.40;;;27.00;99.90;;;;;;5057399;28;21645;-66
2021/07/02 08:13:56;;;;;;;13.38;9.30;;;27.00;99.90;;;;;;5066253;28;20203;-67
2021/07/02 08:16:27;;;;;;;13.50;9.45;;;27.70;99.90;;;;;;5054345;28;20210;-66
2021/07/02 08:18:59;;;;;;;12.90;8.70;;;27.50;99.90;;;;;;5062990;28;20563;-66
2021/07/02 08:21:27;;;;;;;13.02;8.32;;;27.90;99.90;;;;;;5056746;28;20220;-66
2021/07/02 08:23:56;;;;;;;10.80;7.93;;;28.30;99.90;;;;;;5057807;28;20281;-67
2021/07/02 08:26:26;;;;;;;8.88;7.15;;;27.80;99.90;;;;;;5063722;28;20199;-67
2021/07/02 08:31:41;;;;;;;8.95;6.72;;;28.00;99.90;;;;;;5067080;28;20227;-66
2021/07/02 08:34:10;;;;;;;8.40;6.60;;;28.60;99.90;;;;;;5065668;28;20199;-67
2021/07/02 08:36:38;;;;;;;8.52;6.18;;;28.60;99.90;;;;;;5064000;28;20278;-66
2021/07/02 08:39:07;;;;;;;9.82;7.53;;;28.60;99.90;;;;;;5072386;28;20191;-67
2021/07/02 08:41:37;;;;;;;10.13;7.82;;;29.10;99.90;;;;;;5062865;28;20211;-66
2021/07/02 08:44:06;;;;;;;8.15;7.32;;;29.10;99.90;;;;;;5062482;28;20202;-67
2021/07/02 08:46:35;;;;;;;10.75;8.75;;;29.20;99.90;;;;;;5061861;28;20219;-64
2021/07/02 08:49:26;;;;;;;12.02;8.02;;;29.00;99.90;;;;;;5068770;28;20705;-67
2021/07/02 08:51:56;;;;;;;11.35;7.45;;;29.10;99.90;;;;;;5064263;28;21528;-67
2021/07/02 08:54:24;;;;;;;9.20;7.35;;;28.80;99.90;;;;;;5070300;28;20210;-67
2021/07/02 08:56:59;;;;;;;9.98;7.22;;;28.80;99.90;;;;;;5062155;28;20300;-67
2021/07/02 08:59:29;;;;;;;12.15;7.50;;;29.00;99.90;;;;;;5061342;28;20609;-68
2021/07/02 09:01:58;;;;;;;9.52;8.00;;;29.00;99.90;;;;;;5062534;28;20787;-68
2021/07/02 09:04:30;;;;;;;12.48;8.15;;;28.70;99.90;;;;;;5063448;28;20682;-68
2021/07/02 09:07:18;;;;;;;15.68;8.07;;;28.80;99.90;;;;;;5071853;28;20199;-69
2021/07/02 09:09:48;;;;;;;11.52;8.20;;;28.80;99.90;;;;;;5058309;28;20724;-67
2021/07/02 09:12:19;;;;;;;14.90;9.63;;;28.40;99.90;;;;;;5064186;28;20647;-68
2021/07/02 09:15:06;;;;;;;14.23;10.15;;;28.60;99.90;;;;;;5065052;28;20257;-68
2021/07/02 09:17:37;;;;;;;14.23;9.25;;;28.60;99.90;;;;;;5069343;28;20262;-68
2021/07/02 09:20:12;;;;;;;11.52;8.40;;;28.20;99.90;;;;;;5065115;28;20646;-66
2021/07/02 09:22:49;;;;;;;14.00;8.48;;;28.00;99.90;;;;;;5063058;28;20628;-66
2021/07/02 09:25:28;;;;;;;8.70;7.40;;;28.20;99.90;;;;;;5061676;28;20189;-66
2021/07/02 09:28:00;;;;;;;12.05;8.32;;;28.90;99.90;;;;;;5057597;28;20199;-65
2021/07/02 09:30:31;;;;;;;11.45;8.63;;;29.50;99.90;;;;;;5059618;28;20734;-67
2021/07/02 09:33:01;;;;;;;16.48;9.15;;;29.80;99.90;;;;;;5062428;28;20698;-67
2021/07/02 09:35:37;;;;;;;12.57;9.82;;;29.60;99.60;;;;;;5061139;28;20290;-66
2021/07/02 09:38:06;;;;;;;13.73;9.35;;;29.60;99.90;;;;;;5062543;28;20750;-67
2021/07/02 09:40:37;;;;;;;15.27;9.65;;;29.50;99.90;;;;;;5062501;28;20204;-66
2021/07/02 09:43:08;;;;;;;16.20;10.18;;;29.40;99.90;;;;;;5065947;28;20219;-67
2021/07/02 09:45:45;;;;;;;13.18;9.93;;;29.90;99.90;;;;;;5068607;28;20287;-67
2021/07/02 09:48:15;;;;;;;14.85;10.15;;;30.20;99.90;;;;;;5070211;28;20195;-67
2021/07/02 09:50:47;;;;;;;14.82;9.65;;;29.80;99.70;;;;;;5066748;28;20650;-66
2021/07/02 09:53:19;;;;;;;15.82;10.00;;;30.10;99.80;;;;;;5061079;28;20311;-66
2021/07/02 09:55:51;;;;;;;16.08;11.40;;;30.20;99.10;;;;;;5061289;28;20210;-67
2021/07/02 09:58:23;;;;;;;16.15;10.57;;;29.70;98.80;;;;;;5059800;28;20203;-67
2021/07/02 10:00:53;;;;;;;14.52;10.85;;;29.90;99.90;;;;;;5059665;28;20272;-67
2021/07/02 10:03:25;;;;;;;14.73;11.60;;;29.60;98.80;;;;;;5058676;28;20290;-67
2021/07/02 10:05:57;;;;;;;14.27;10.30;;;28.60;99.90;;;;;;5061160;28;20475;-67
2021/07/02 10:08:26;;;;;;;16.40;11.88;;;27.70;99.90;;;;;;5068360;28;20279;-67
2021/07/02 10:10:58;;;;;;;16.02;12.60;;;27.20;99.90;;;;;;5057501;28;20735;-70
2021/07/02 10:13:27;;;;;;;18.00;11.50;;;26.80;99.90;;;;;;5058000;28;20707;-66
2021/07/02 10:15:58;;;;;;;15.25;11.25;;;26.80;99.90;;;;;;5057796;28;20805;-67
2021/07/02 10:18:29;;;;;;;18.08;11.50;;;27.50;99.90;;;;;;5065024;28;20596;-67
2021/07/02 10:21:02;;;;;;;19.42;11.38;;;27.70;99.90;;;;;;5061964;28;20223;-66
2021/07/02 10:23:35;;;;;;;20.45;13.10;;;26.80;99.90;;;;;;5057718;28;20314;-67
2021/07/02 10:26:08;;;;;;;19.00;12.55;;;25.80;99.90;;;;;;5060149;28;20199;-67
2021/07/02 10:28:38;;;;;;;17.45;11.73;;;25.90;99.90;;;;;;5059902;28;20613;-67
2021/07/02 10:31:09;;;;;;;22.17;14.02;;;26.80;99.90;;;;;;5061739;28;20227;-67
2021/07/02 10:33:42;;;;;;;20.25;12.40;;;27.40;99.90;;;;;;5059425;28;20213;-67
2021/07/02 10:36:15;;;;;;;14.80;11.90;;;27.90;99.90;;;;;;5061847;28;20341;-67
2021/07/02 10:38:45;;;;;;;14.05;10.23;;;28.20;99.90;;;;;;5057019;28;20702;-67
2021/07/02 10:41:16;;;;;;;17.92;11.40;;;28.50;99.90;;;;;;5062543;28;20253;-67
2021/07/02 10:44:05;;;;;;;20.17;11.50;;;29.00;99.90;;;;;;5066513;28;20196;-67
2021/07/02 10:46:34;;;;;;;17.88;11.75;;;29.10;99.90;;;;;;5059457;28;20192;-67
2021/07/02 10:49:05;;;;;;;18.95;11.60;;;28.70;99.90;;;;;;5057843;28;20574;-66
2021/07/02 10:51:44;;;;;;;15.63;11.18;;;28.70;99.90;;;;;;5065655;28;20683;-66
2021/07/02 10:54:32;;;;;;;13.82;9.45;;;28.40;99.90;;;;;;5061038;28;20267;-66
2021/07/02 10:57:12;;;;;;;13.75;9.48;;;28.60;99.90;;;;;;5060910;28;20204;-66
2021/07/02 11:00:20;;;;;;;12.88;10.38;;;28.80;99.90;;;;;;5065959;28;20188;-64
2021/07/02 11:02:51;;;;;;;16.10;10.18;;;28.90;99.90;;;;;;5062228;28;20270;-66
2021/07/02 11:05:32;;;;;;;15.77;9.82;;;28.80;99.80;;;;;;5058138;28;20286;-66
2021/07/02 11:08:02;;;;;;;16.40;10.82;;;28.40;99.90;;;;;;5062126;28;20308;-65
2021/07/02 11:10:57;;;;;;;14.30;9.60;;;28.60;99.90;;;;;;5058211;28;20220;-65
2021/07/02 11:13:26;;;;;;;16.55;10.30;;;28.90;99.90;;;;;;5060802;28;20287;-68
2021/07/02 11:16:07;;;;;;;18.23;10.75;;;28.90;99.90;;;;;;5058828;28;20818;-68
2021/07/02 11:18:43;;;;;;;13.15;10.60;;;28.60;99.90;;;;;;5057894;28;20710;-65
2021/07/02 11:21:18;;;;;;;14.13;10.40;;;27.90;99.90;;;;;;5059274;28;20677;-65
2021/07/02 11:23:49;;;;;;;15.32;11.70;;;26.80;99.90;;;;;;5074935;28;20189;-65
2021/07/02 11:26:46;;;;;;;14.18;10.48;;;26.50;99.90;;;;;;5057580;28;20252;-65
2021/07/02 11:29:17;;;;;;;17.85;10.23;;;26.70;99.90;;;;;;5013789;28;20203;-65
2021/07/02 11:31:46;;;;;;;10.35;9.02;;;27.00;99.90;;;;;;5056463;28;20264;-65
2021/07/02 11:34:20;;;;;;;11.98;8.98;;;27.30;99.90;;;;;;5059659;28;20222;-66
2021/07/02 11:37:14;;;;;;;11.50;8.90;;;27.70;99.90;;;;;;5060382;28;20294;-65
2021/07/02 11:39:53;;;;;;;13.38;10.25;;;28.00;99.90;;;;;;5059157;28;20206;-65
2021/07/02 11:42:22;;;;;;;12.80;10.07;;;27.50;99.90;;;;;;5061083;28;20544;-65
2021/07/02 11:44:50;;;;;;;13.05;10.10;;;27.30;99.90;;;;;;5060373;28;20192;-66
2021/07/02 11:47:21;;;;;;;13.32;9.80;;;27.30;99.90;;;;;;5060161;28;20196;-65
2021/07/02 11:49:50;;;;;;;12.73;9.48;;;27.50;99.90;;;;;;5058082;28;20193;-65
2021/07/02 11:52:20;;;;;;;15.05;9.77;;;27.60;99.90;;;;;;5061778;28;20307;-65
2021/07/02 11:54:54;;;;;;;12.65;9.75;;;27.20;99.90;;;;;;5059885;28;20240;-65
2021/07/02 11:57:25;;;;;;;13.00;10.20;;;27.10;99.90;;;;;;5063220;28;20200;-65
2021/07/02 12:00:07;;;;;;;13.55;9.32;;;27.00;99.90;;;;;;5062228;28;20242;-65
2021/07/02 12:02:36;;;;;;;15.50;9.33;;;26.90;99.90;;;;;;5055701;28;20611;-65
2021/07/02 12:05:07;;;;;;;14.10;10.67;;;27.00;99.90;;;;;;5060424;28;20199;-65
2021/07/02 12:07:36;;;;;;;19.57;10.47;;;26.80;99.90;;;;;;5064097;28;20285;-65
2021/07/02 12:10:12;;;;;;;15.07;10.90;;;26.80;99.90;;;;;;5064823;28;21309;-65
2021/07/02 12:12:40;;;;;;;17.23;11.50;;;26.50;99.90;;;;;;5059906;28;20224;-65
2021/07/02 12:15:11;;;;;;;13.87;10.90;;;26.10;99.90;;;;;;5065339;28;20211;-65
2021/07/02 12:17:39;;;;;;;16.27;10.60;;;25.70;99.90;;;;;;5063703;28;20189;-65
2021/07/02 12:20:12;;;;;;;10.90;9.00;;;25.70;99.90;;;;;;5059182;28;20664;-65
2021/07/02 12:22:41;;;;;;;16.33;11.77;;;25.80;99.90;;;;;;5062093;28;20192;-65
2021/07/02 12:25:13;;;;;;;17.03;12.33;;;25.90;99.90;;;;;;5059014;28;20674;-66
2021/07/02 12:27:44;;;;;;;21.97;12.87;;;26.00;99.90;;;;;;5065930;28;20214;-65
2021/07/02 12:30:12;;;;;;;13.07;11.03;;;25.90;99.90;;;;;;5061470;28;20241;-65
2021/07/02 12:32:45;;;;;;;18.43;11.93;;;26.20;99.90;;;;;;5065169;28;20389;-68
2021/07/02 12:35:14;;;;;;;18.23;13.47;;;25.90;99.90;;;;;;5063909;28;20308;-68
2021/07/02 12:37:43;;;;;;;16.97;12.80;;;25.90;99.90;;;;;;5068467;28;20286;-68
2021/07/02 12:40:14;;;;;;;16.80;12.27;;;25.80;99.90;;;;;;5066596;28;20713;-68
2021/07/02 12:42:45;;;;;;;15.70;11.90;;;25.70;99.90;;;;;;5064402;28;20200;-68
2021/07/02 12:45:18;;;;;;;16.00;11.70;;;25.80;99.90;;;;;;5068288;28;20184;-68
2021/07/02 12:47:47;;;;;;;18.43;11.57;;;25.70;99.90;;;;;;5059371;28;20574;-68
2021/07/02 12:50:18;;;;;;;14.27;11.77;;;25.20;99.90;;;;;;5066738;28;20269;-68
2021/07/02 12:55:31;;;;;;;14.10;11.17;;;25.00;99.90;;;;;;5063936;28;20226;-68
2021/07/02 12:58:00;;;;;;;16.13;11.47;;;25.40;99.90;;;;;;5067030;28;20570;-68
2021/07/02 13:00:32;;;;;;;17.07;12.03;;;25.30;99.90;;;;;;5057530;28;20278;-67